sensor_id;sensor_type;location;lat;lon;timestamp;P1;durP1;ratioP1;P2;durP2;ratioP2
56271;SDS011;42177;48.914;18.160;2024-03-23T00:56:13;14.2;;;11.5;;
56271;SDS011;42177;48.914;18.160;2024-03-23T01:01:13;13.4;;;11.5;;
56271;SDS011;42177;48.914;18.160;2024-03-23T01:06:13;13.4;;;11.5;;
56271;SDS011;42177;48.914;18.160;2024-03-23T01:11:13;12.5;;;10.5;;
56271;SDS011;42177;48.914;18.160;2024-03-23T01:16:13;12.5;;;10.5;;
56271;SDS011;42177;48.914;18.160;2024-03-23T01:21:13;12.7;;;9.5;;
56271;SDS011;42177;48.914;18.160;2024-03-23T01:26:13;12.7;;;9.5;;
56271;SDS011;42177;48.914;18.160;2024-03-23T01:31:13;13.6;;;12.2;;
56271;SDS011;42177;48.914;18.160;2024-03-23T01:36:13;13.6;;;12.2;;
56271;SDS011;42177;48.914;18.160;2024-03-23T01:41:13;16;;;13.9;;
56271;SDS011;42177;48.914;18.160;2024-03-23T01:46:13;16;;;13.9;;
56271;SDS011;42177;48.914;18.160;2024-03-23T01:51:13;17.9;;;15.1;;
56271;SDS011;42177;48.914;18.160;2024-03-23T01:56:13;17.9;;;15.1;;
56271;SDS011;42177;48.914;18.160;2024-03-23T02:01:13;20.6;;;17.6;;
56271;SDS011;42177;48.914;18.160;2024-03-23T02:06:13;20.6;;;17.6;;
56271;SDS011;42177;48.914;18.160;2024-03-23T02:11:13;23.3;;;17.8;;
56271;SDS011;42177;48.914;18.160;2024-03-23T02:16:13;23.3;;;17.8;;
56271;SDS011;42177;48.914;18.160;2024-03-23T02:21:13;21.1;;;18;;
56271;SDS011;42177;48.914;18.160;2024-03-23T02:26:13;21.1;;;18;;
56271;SDS011;42177;48.914;18.160;2024-03-23T02:31:13;22.1;;;17.3;;
56271;SDS011;42177;48.914;18.160;2024-03-23T02:36:13;22.1;;;17.3;;
56271;SDS011;42177;48.914;18.160;2024-03-23T02:41:13;19.7;;;17.2;;
56271;SDS011;42177;48.914;18.160;2024-03-23T02:46:13;19.7;;;17.2;;
56271;SDS011;42177;48.914;18.160;2024-03-23T02:51:13;22.7;;;18;;
56271;SDS011;42177;48.914;18.160;2024-03-23T02:56:13;22.7;;;18;;
56271;SDS011;42177;48.914;18.160;2024-03-23T03:01:13;22.2;;;17.6;;
56271;SDS011;42177;48.914;18.160;2024-03-23T03:06:22;22.2;;;17.6;;
56271;SDS011;42177;48.914;18.160;2024-03-23T03:11:13;21.3;;;17.5;;
56271;SDS011;42177;48.914;18.160;2024-03-23T03:16:13;21.3;;;17.5;;
56271;SDS011;42177;48.914;18.160;2024-03-23T03:21:13;23.3;;;17.1;;
56271;SDS011;42177;48.914;18.160;2024-03-23T03:26:13;23.3;;;17.1;;
56271;SDS011;42177;48.914;18.160;2024-03-23T03:31:13;20.3;;;16.9;;
56271;SDS011;42177;48.914;18.160;2024-03-23T03:36:13;20.3;;;16.9;;
56271;SDS011;42177;48.914;18.160;2024-03-23T03:41:13;20.2;;;17;;
56271;SDS011;42177;48.914;18.160;2024-03-23T03:46:13;20.2;;;17;;
56271;SDS011;42177;48.914;18.160;2024-03-23T03:51:13;20.8;;;17;;
56271;SDS011;42177;48.914;18.160;2024-03-23T03:56:13;20.8;;;17;;
56271;SDS011;42177;48.914;18.160;2024-03-23T04:01:13;18.9;;;16.8;;
56271;SDS011;42177;48.914;18.160;2024-03-23T04:06:18;18.9;;;16.8;;
56271;SDS011;42177;48.914;18.160;2024-03-23T04:11:13;20.8;;;17.3;;
56271;SDS011;42177;48.914;18.160;2024-03-23T04:16:13;20.8;;;17.3;;
56271;SDS011;42177;48.914;18.160;2024-03-23T04:21:13;20.2;;;17.5;;
56271;SDS011;42177;48.914;18.160;2024-03-23T04:26:13;20.2;;;17.5;;
56271;SDS011;42177;48.914;18.160;2024-03-23T04:31:13;20.2;;;16.8;;
56271;SDS011;42177;48.914;18.160;2024-03-23T04:36:13;20.2;;;16.8;;
56271;SDS011;42177;48.914;18.160;2024-03-23T04:41:13;19.9;;;16.7;;
56271;SDS011;42177;48.914;18.160;2024-03-23T04:46:13;19.9;;;16.7;;
56271;SDS011;42177;48.914;18.160;2024-03-23T04:51:19;19.9;;;17.1;;
56271;SDS011;42177;48.914;18.160;2024-03-23T04:56:13;19.9;;;17.1;;
56271;SDS011;42177;48.914;18.160;2024-03-23T05:01:13;21.2;;;15.8;;
56271;SDS011;42177;48.914;18.160;2024-03-23T05:06:13;21.2;;;15.8;;
56271;SDS011;42177;48.914;18.160;2024-03-23T05:11:13;20.5;;;17.5;;
56271;SDS011;42177;48.914;18.160;2024-03-23T05:16:13;20.5;;;17.5;;
56271;SDS011;42177;48.914;18.160;2024-03-23T05:21:13;23.3;;;17.3;;
56271;SDS011;42177;48.914;18.160;2024-03-23T05:26:13;23.3;;;17.3;;
56271;SDS011;42177;48.914;18.160;2024-03-23T05:31:22;16.2;;;13.2;;
56271;SDS011;42177;48.914;18.160;2024-03-23T05:36:13;16.2;;;13.2;;
56271;SDS011;42177;48.914;18.160;2024-03-23T05:41:13;12.3;;;8.6;;
56271;SDS011;42177;48.914;18.160;2024-03-23T05:46:13;12.3;;;8.6;;
56271;SDS011;42177;48.914;18.160;2024-03-23T05:51:13;12.3;;;9.1;;
56271;SDS011;42177;48.914;18.160;2024-03-23T05:56:13;12.3;;;9.1;;
56271;SDS011;42177;48.914;18.160;2024-03-23T06:01:13;14;;;10.6;;
56271;SDS011;42177;48.914;18.160;2024-03-23T06:06:13;14;;;10.6;;
56271;SDS011;42177;48.914;18.160;2024-03-23T06:11:13;22.1;;;18.6;;
56271;SDS011;42177;48.914;18.160;2024-03-23T06:16:13;22.1;;;18.6;;
56271;SDS011;42177;48.914;18.160;2024-03-23T06:21:13;62;;;51.1;;
56271;SDS011;42177;48.914;18.160;2024-03-23T06:26:13;62;;;51.1;;
56271;SDS011;42177;48.914;18.160;2024-03-23T06:31:13;22;;;17.4;;
56271;SDS011;42177;48.914;18.160;2024-03-23T06:36:13;22;;;17.4;;
56271;SDS011;42177;48.914;18.160;2024-03-23T06:41:13;9.9;;;8.5;;
56271;SDS011;42177;48.914;18.160;2024-03-23T06:46:13;9.9;;;8.5;;
56271;SDS011;42177;48.914;18.160;2024-03-23T06:51:13;10.7;;;9;;
56271;SDS011;42177;48.914;18.160;2024-03-23T06:56:13;10.7;;;9;;
56271;SDS011;42177;48.914;18.160;2024-03-23T07:01:13;11.5;;;8.8;;
56271;SDS011;42177;48.914;18.160;2024-03-23T07:06:13;11.5;;;8.8;;
56271;SDS011;42177;48.914;18.160;2024-03-23T07:11:17;11.6;;;8.9;;
56271;SDS011;42177;48.914;18.160;2024-03-23T07:16:13;11.6;;;8.9;;
56271;SDS011;42177;48.914;18.160;2024-03-23T07:21:14;14.9;;;9;;
56271;SDS011;42177;48.914;18.160;2024-03-23T07:26:13;14.9;;;9;;
56271;SDS011;42177;48.914;18.160;2024-03-23T07:31:13;10;;;8.4;;
56271;SDS011;42177;48.914;18.160;2024-03-23T07:36:13;10;;;8.4;;
56271;SDS011;42177;48.914;18.160;2024-03-23T07:41:14;10.6;;;8.6;;
56271;SDS011;42177;48.914;18.160;2024-03-23T07:46:14;10.6;;;8.6;;
56271;SDS011;42177;48.914;18.160;2024-03-23T07:51:15;9.1;;;7.8;;
56271;SDS011;42177;48.914;18.160;2024-03-23T07:56:13;9.1;;;7.8;;
56271;SDS011;42177;48.914;18.160;2024-03-23T08:01:14;9.9;;;8.2;;
56271;SDS011;42177;48.914;18.160;2024-03-23T08:06:13;9.9;;;8.2;;
56271;SDS011;42177;48.914;18.160;2024-03-23T08:11:13;10.4;;;8.3;;
56271;SDS011;42177;48.914;18.160;2024-03-23T08:16:13;10.4;;;8.3;;
56271;SDS011;42177;48.914;18.160;2024-03-23T08:21:13;10.3;;;8.1;;
56271;SDS011;42177;48.914;18.160;2024-03-23T08:26:15;10.3;;;8.1;;
56271;SDS011;42177;48.914;18.160;2024-03-23T08:31:13;9.6;;;7.9;;
56271;SDS011;42177;48.914;18.160;2024-03-23T08:36:13;9.6;;;7.9;;
56271;SDS011;42177;48.914;18.160;2024-03-23T08:41:13;10.1;;;8.1;;
56271;SDS011;42177;48.914;18.160;2024-03-23T08:46:13;10.1;;;8.1;;
56271;SDS011;42177;48.914;18.160;2024-03-23T08:51:13;10.1;;;8;;
56271;SDS011;42177;48.914;18.160;2024-03-23T08:56:13;10.1;;;8;;
56271;SDS011;42177;48.914;18.160;2024-03-23T09:01:13;9.9;;;8;;
56271;SDS011;42177;48.914;18.160;2024-03-23T09:06:14;9.9;;;8;;
56271;SDS011;42177;48.914;18.160;2024-03-23T09:11:13;8.9;;;7.7;;
56271;SDS011;42177;48.914;18.160;2024-03-23T09:16:13;8.9;;;7.7;;
56271;SDS011;42177;48.914;18.160;2024-03-23T09:21:13;10.7;;;8.4;;
56271;SDS011;42177;48.914;18.160;2024-03-23T09:26:13;10.7;;;8.4;;
56271;SDS011;42177;48.914;18.160;2024-03-23T09:31:13;8.4;;;7.5;;
56271;SDS011;42177;48.914;18.160;2024-03-23T09:36:13;8.4;;;7.5;;
56271;SDS011;42177;48.914;18.160;2024-03-23T09:41:13;25.4;;;19.8;;
56271;SDS011;42177;48.914;18.160;2024-03-23T09:46:13;25.4;;;19.8;;
56271;SDS011;42177;48.914;18.160;2024-03-23T09:51:13;8.4;;;7.3;;
56271;SDS011;42177;48.914;18.160;2024-03-23T09:56:13;8.4;;;7.3;;
56271;SDS011;42177;48.914;18.160;2024-03-23T10:01:13;9.6;;;7.3;;
56271;SDS011;42177;48.914;18.160;2024-03-23T10:06:13;9.6;;;7.3;;
56271;SDS011;42177;48.914;18.160;2024-03-23T10:11:14;11.6;;;7.9;;
56271;SDS011;42177;48.914;18.160;2024-03-23T10:16:20;11.6;;;7.9;;
56271;SDS011;42177;48.914;18.160;2024-03-23T10:21:14;9.4;;;6.7;;
56271;SDS011;42177;48.914;18.160;2024-03-23T10:26:14;9.4;;;6.7;;
56271;SDS011;42177;48.914;18.160;2024-03-23T10:31:13;8.6;;;7.5;;
56271;SDS011;42177;48.914;18.160;2024-03-23T10:36:13;8.6;;;7.5;;
56271;SDS011;42177;48.914;18.160;2024-03-23T10:41:13;10.4;;;8.1;;
56271;SDS011;42177;48.914;18.160;2024-03-23T10:46:13;10.4;;;8.1;;
56271;SDS011;42177;48.914;18.160;2024-03-23T10:51:13;9.3;;;7.7;;
56271;SDS011;42177;48.914;18.160;2024-03-23T10:56:13;9.3;;;7.7;;
56271;SDS011;42177;48.914;18.160;2024-03-23T11:01:13;8.8;;;7.9;;
56271;SDS011;42177;48.914;18.160;2024-03-23T11:06:34;8.8;;;7.9;;
56271;SDS011;42177;48.914;18.160;2024-03-23T11:11:14;10.4;;;8.6;;
56271;SDS011;42177;48.914;18.160;2024-03-23T11:16:14;10.4;;;8.6;;
56271;SDS011;42177;48.914;18.160;2024-03-23T11:21:51;9.2;;;7.5;;
56271;SDS011;42177;48.914;18.160;2024-03-23T11:26:13;9.2;;;7.5;;
56271;SDS011;42177;48.914;18.160;2024-03-23T11:31:13;9.5;;;7.8;;
56271;SDS011;42177;48.914;18.160;2024-03-23T11:36:18;9.5;;;7.8;;
56271;SDS011;42177;48.914;18.160;2024-03-23T11:41:13;10.5;;;8.4;;
56271;SDS011;42177;48.914;18.160;2024-03-23T11:46:18;10.5;;;8.4;;
56271;SDS011;42177;48.914;18.160;2024-03-23T11:51:13;12.5;;;8.4;;
56271;SDS011;42177;48.914;18.160;2024-03-23T11:56:13;12.5;;;8.4;;
56271;SDS011;42177;48.914;18.160;2024-03-23T12:01:13;10.7;;;7.5;;
56271;SDS011;42177;48.914;18.160;2024-03-23T12:06:13;10.7;;;7.5;;
56271;SDS011;42177;48.914;18.160;2024-03-23T12:11:13;7.5;;;6.7;;
56271;SDS011;42177;48.914;18.160;2024-03-23T12:16:14;7.5;;;6.7;;
56271;SDS011;42177;48.914;18.160;2024-03-23T12:21:13;10.7;;;8.3;;
56271;SDS011;42177;48.914;18.160;2024-03-23T12:26:13;10.7;;;8.3;;
56271;SDS011;42177;48.914;18.160;2024-03-23T12:31:13;10;;;6.3;;
56271;SDS011;42177;48.914;18.160;2024-03-23T12:36:13;10;;;6.3;;
56271;SDS011;42177;48.914;18.160;2024-03-23T12:41:13;7.2;;;6.1;;
56271;SDS011;42177;48.914;18.160;2024-03-23T12:46:13;7.2;;;6.1;;
56271;SDS011;42177;48.914;18.160;2024-03-23T12:51:13;8.2;;;6.3;;
56271;SDS011;42177;48.914;18.160;2024-03-23T12:56:13;8.2;;;6.3;;
56271;SDS011;42177;48.914;18.160;2024-03-23T13:01:13;6.2;;;5.6;;
56271;SDS011;42177;48.914;18.160;2024-03-23T13:06:13;6.2;;;5.6;;
56271;SDS011;42177;48.914;18.160;2024-03-23T13:11:13;8.2;;;7.3;;
56271;SDS011;42177;48.914;18.160;2024-03-23T13:16:13;8.2;;;7.3;;
56271;SDS011;42177;48.914;18.160;2024-03-23T13:21:13;8.8;;;6.2;;
56271;SDS011;42177;48.914;18.160;2024-03-23T13:26:13;8.8;;;6.2;;
56271;SDS011;42177;48.914;18.160;2024-03-23T13:31:13;8.4;;;5.7;;
56271;SDS011;42177;48.914;18.160;2024-03-23T13:36:13;8.4;;;5.7;;
56271;SDS011;42177;48.914;18.160;2024-03-23T13:41:13;8;;;5.5;;
56271;SDS011;42177;48.914;18.160;2024-03-23T13:46:13;8;;;5.5;;
56271;SDS011;42177;48.914;18.160;2024-03-23T13:51:13;6.2;;;4.8;;
56271;SDS011;42177;48.914;18.160;2024-03-23T13:56:13;6.2;;;4.8;;
56271;SDS011;42177;48.914;18.160;2024-03-23T14:01:14;6.4;;;5.5;;
56271;SDS011;42177;48.914;18.160;2024-03-23T14:06:13;6.4;;;5.5;;
56271;SDS011;42177;48.914;18.160;2024-03-23T14:11:13;4.2;;;1.5;;
56271;SDS011;42177;48.914;18.160;2024-03-23T14:16:13;4.2;;;1.5;;
56271;SDS011;42177;48.914;18.160;2024-03-23T14:21:13;20.1;;;15.2;;
56271;SDS011;42177;48.914;18.160;2024-03-23T14:26:13;20.1;;;15.2;;
56271;SDS011;42177;48.914;18.160;2024-03-23T14:31:13;2.3;;;1.2;;
56271;SDS011;42177;48.914;18.160;2024-03-23T14:36:13;2.3;;;1.2;;
56271;SDS011;42177;48.914;18.160;2024-03-23T14:41:13;3.9;;;1.4;;
56271;SDS011;42177;48.914;18.160;2024-03-23T14:46:14;3.9;;;1.4;;
56271;SDS011;42177;48.914;18.160;2024-03-23T14:51:13;3.5;;;1.3;;
56271;SDS011;42177;48.914;18.160;2024-03-23T14:56:13;3.5;;;1.3;;
56271;SDS011;42177;48.914;18.160;2024-03-23T15:01:13;5.3;;;1.6;;
56271;SDS011;42177;48.914;18.160;2024-03-23T15:06:13;5.3;;;1.6;;
56271;SDS011;42177;48.914;18.160;2024-03-23T15:11:13;2.9;;;1.2;;
56271;SDS011;42177;48.914;18.160;2024-03-23T15:16:16;2.9;;;1.2;;
56271;SDS011;42177;48.914;18.160;2024-03-23T15:21:13;1.3;;;0.9;;
56271;SDS011;42177;48.914;18.160;2024-03-23T15:26:13;1.3;;;0.9;;
56271;SDS011;42177;48.914;18.160;2024-03-23T15:31:13;2.3;;;1.5;;
56271;SDS011;42177;48.914;18.160;2024-03-23T15:36:13;2.3;;;1.5;;
56271;SDS011;42177;48.914;18.160;2024-03-23T15:41:13;1.3;;;1;;
56271;SDS011;42177;48.914;18.160;2024-03-23T15:46:13;1.3;;;1;;
56271;SDS011;42177;48.914;18.160;2024-03-23T15:51:13;7.3;;;5.2;;
56271;SDS011;42177;48.914;18.160;2024-03-23T15:56:13;7.3;;;5.2;;
56271;SDS011;42177;48.914;18.160;2024-03-23T16:01:13;2;;;0.9;;
56271;SDS011;42177;48.914;18.160;2024-03-23T16:06:13;2;;;0.9;;
56271;SDS011;42177;48.914;18.160;2024-03-23T16:11:13;2.2;;;0.7;;
56271;SDS011;42177;48.914;18.160;2024-03-23T16:16:13;2.2;;;0.7;;
56271;SDS011;42177;48.914;18.160;2024-03-23T16:21:13;1.2;;;0.7;;
56271;SDS011;42177;48.914;18.160;2024-03-23T16:26:13;1.2;;;0.7;;
56271;SDS011;42177;48.914;18.160;2024-03-23T16:31:13;1.2;;;1;;
56271;SDS011;42177;48.914;18.160;2024-03-23T16:36:13;1.2;;;1;;
56271;SDS011;42177;48.914;18.160;2024-03-23T16:41:14;1.1;;;0.9;;
56271;SDS011;42177;48.914;18.160;2024-03-23T16:46:14;1.1;;;0.9;;
56271;SDS011;42177;48.914;18.160;2024-03-23T16:51:13;0.9;;;0.9;;
56271;SDS011;42177;48.914;18.160;2024-03-23T16:56:13;0.9;;;0.9;;
56271;SDS011;42177;48.914;18.160;2024-03-23T17:01:13;3.7;;;1.7;;
56271;SDS011;42177;48.914;18.160;2024-03-23T17:06:13;3.7;;;1.7;;
56271;SDS011;42177;48.914;18.160;2024-03-23T17:11:13;0.9;;;0.8;;
56271;SDS011;42177;48.914;18.160;2024-03-23T17:16:13;0.9;;;0.8;;
56271;SDS011;42177;48.914;18.160;2024-03-23T17:21:13;0.5;;;0.5;;
56271;SDS011;42177;48.914;18.160;2024-03-23T17:26:13;0.5;;;0.5;;
56271;SDS011;42177;48.914;18.160;2024-03-23T17:31:15;0.6;;;0.6;;
56271;SDS011;42177;48.914;18.160;2024-03-23T17:36:13;0.6;;;0.6;;
56271;SDS011;42177;48.914;18.160;2024-03-23T17:41:13;1.8;;;1.1;;
56271;SDS011;42177;48.914;18.160;2024-03-23T17:46:13;1.8;;;1.1;;
56271;SDS011;42177;48.914;18.160;2024-03-23T17:51:13;2;;;0.7;;
56271;SDS011;42177;48.914;18.160;2024-03-23T17:56:13;2;;;0.7;;
56271;SDS011;42177;48.914;18.160;2024-03-23T18:01:13;1.6;;;0.8;;
56271;SDS011;42177;48.914;18.160;2024-03-23T18:06:13;1.6;;;0.8;;
56271;SDS011;42177;48.914;18.160;2024-03-23T18:11:13;2.4;;;1.1;;
56271;SDS011;42177;48.914;18.160;2024-03-23T18:16:13;2.4;;;1.1;;
56271;SDS011;42177;48.914;18.160;2024-03-23T18:21:13;2;;;1.1;;
56271;SDS011;42177;48.914;18.160;2024-03-23T18:26:13;2;;;1.1;;
56271;SDS011;42177;48.914;18.160;2024-03-23T18:31:13;1.2;;;1;;
56271;SDS011;42177;48.914;18.160;2024-03-23T18:36:13;1.2;;;1;;
56271;SDS011;42177;48.914;18.160;2024-03-23T18:41:13;1.1;;;1;;
56271;SDS011;42177;48.914;18.160;2024-03-23T18:46:13;1.1;;;1;;
56271;SDS011;42177;48.914;18.160;2024-03-23T18:51:13;3.2;;;1.4;;
56271;SDS011;42177;48.914;18.160;2024-03-23T18:56:13;3.2;;;1.4;;
56271;SDS011;42177;48.914;18.160;2024-03-23T19:01:13;1.4;;;1.3;;
56271;SDS011;42177;48.914;18.160;2024-03-23T19:06:13;1.4;;;1.3;;
56271;SDS011;42177;48.914;18.160;2024-03-23T19:11:13;3;;;1.5;;
56271;SDS011;42177;48.914;18.160;2024-03-23T19:16:13;3;;;1.5;;
56271;SDS011;42177;48.914;18.160;2024-03-23T19:21:13;4;;;1.6;;
56271;SDS011;42177;48.914;18.160;2024-03-23T19:26:13;4;;;1.6;;
56271;SDS011;42177;48.914;18.160;2024-03-23T19:31:13;7.6;;;6.4;;
56271;SDS011;42177;48.914;18.160;2024-03-23T19:36:13;7.6;;;6.4;;
56271;SDS011;42177;48.914;18.160;2024-03-23T19:41:13;3.1;;;2;;
56271;SDS011;42177;48.914;18.160;2024-03-23T19:46:13;3.1;;;2;;
56271;SDS011;42177;48.914;18.160;2024-03-23T19:51:13;3.4;;;2.6;;
56271;SDS011;42177;48.914;18.160;2024-03-23T19:56:13;3.4;;;2.6;;
56271;SDS011;42177;48.914;18.160;2024-03-23T20:01:14;4.3;;;2.6;;
56271;SDS011;42177;48.914;18.160;2024-03-23T20:06:13;4.3;;;2.6;;
56271;SDS011;42177;48.914;18.160;2024-03-23T20:11:13;3.9;;;2.5;;
56271;SDS011;42177;48.914;18.160;2024-03-23T20:16:13;3.9;;;2.5;;
56271;SDS011;42177;48.914;18.160;2024-03-23T20:21:13;2.7;;;2.2;;
56271;SDS011;42177;48.914;18.160;2024-03-23T20:26:13;2.7;;;2.2;;
56271;SDS011;42177;48.914;18.160;2024-03-23T20:31:13;2.1;;;1.9;;
56271;SDS011;42177;48.914;18.160;2024-03-23T20:36:13;2.1;;;1.9;;
56271;SDS011;42177;48.914;18.160;2024-03-23T20:41:13;4.4;;;2.2;;
56271;SDS011;42177;48.914;18.160;2024-03-23T20:46:13;4.4;;;2.2;;
56271;SDS011;42177;48.914;18.160;2024-03-23T20:51:13;2.2;;;1.5;;
56271;SDS011;42177;48.914;18.160;2024-03-23T20:56:13;2.2;;;1.5;;
56271;SDS011;42177;48.914;18.160;2024-03-23T21:01:13;1.4;;;1.3;;
56271;SDS011;42177;48.914;18.160;2024-03-23T21:06:13;1.4;;;1.3;;
56271;SDS011;42177;48.914;18.160;2024-03-23T21:11:13;1.3;;;1.2;;
56271;SDS011;42177;48.914;18.160;2024-03-23T21:16:15;1.3;;;1.2;;
56271;SDS011;42177;48.914;18.160;2024-03-23T21:21:13;1.8;;;1.5;;
56271;SDS011;42177;48.914;18.160;2024-03-23T21:26:13;1.8;;;1.5;;
56271;SDS011;42177;48.914;18.160;2024-03-23T21:31:13;2.3;;;1.8;;
56271;SDS011;42177;48.914;18.160;2024-03-23T21:36:13;2.3;;;1.8;;
56271;SDS011;42177;48.914;18.160;2024-03-23T21:41:13;5.7;;;3.2;;
56271;SDS011;42177;48.914;18.160;2024-03-23T21:46:13;5.7;;;3.2;;
56271;SDS011;42177;48.914;18.160;2024-03-23T21:51:13;17.7;;;12.7;;
56271;SDS011;42177;48.914;18.160;2024-03-23T21:56:13;17.7;;;12.7;;
56271;SDS011;42177;48.914;18.160;2024-03-23T22:01:13;4.9;;;3.2;;
56271;SDS011;42177;48.914;18.160;2024-03-23T22:06:13;4.9;;;3.2;;
56271;SDS011;42177;48.914;18.160;2024-03-23T22:11:13;5.3;;;3.8;;
56271;SDS011;42177;48.914;18.160;2024-03-23T22:16:13;5.3;;;3.8;;
56271;SDS011;42177;48.914;18.160;2024-03-23T22:21:13;3.7;;;2.1;;
56271;SDS011;42177;48.914;18.160;2024-03-23T22:26:13;3.7;;;2.1;;
56271;SDS011;42177;48.914;18.160;2024-03-23T22:31:13;2.8;;;2.5;;
56271;SDS011;42177;48.914;18.160;2024-03-23T22:36:13;2.8;;;2.5;;
56271;SDS011;42177;48.914;18.160;2024-03-23T22:41:13;2.3;;;2;;
56271;SDS011;42177;48.914;18.160;2024-03-23T22:46:13;2.3;;;2;;
56271;SDS011;42177;48.914;18.160;2024-03-23T22:51:13;1.6;;;1.5;;
56271;SDS011;42177;48.914;18.160;2024-03-23T22:56:13;1.6;;;1.5;;
56271;SDS011;42177;48.914;18.160;2024-03-23T23:01:13;2.3;;;1.9;;
56271;SDS011;42177;48.914;18.160;2024-03-23T23:06:13;2.3;;;1.9;;
56271;SDS011;42177;48.914;18.160;2024-03-23T23:11:13;2;;;1.7;;
56271;SDS011;42177;48.914;18.160;2024-03-23T23:16:13;2;;;1.7;;
56271;SDS011;42177;48.914;18.160;2024-03-23T23:21:13;2;;;1.8;;
56271;SDS011;42177;48.914;18.160;2024-03-23T23:26:13;2;;;1.8;;
56271;SDS011;42177;48.914;18.160;2024-03-23T23:31:15;2.7;;;2;;
56271;SDS011;42177;48.914;18.160;2024-03-23T23:36:15;2.7;;;2;;
56271;SDS011;42177;48.914;18.160;2024-03-23T23:41:13;2.7;;;1.8;;
56271;SDS011;42177;48.914;18.160;2024-03-23T23:46:13;2.7;;;1.8;;
56271;SDS011;42177;48.914;18.160;2024-03-23T23:51:13;3.3;;;2.2;;
56271;SDS011;42177;48.914;18.160;2024-03-23T23:56:13;3.3;;;2.2;;
